Time;durP1;ratioP1;P1;durP2;ratioP2;P2;SDS_P1;SDS_P2;PMS_P1;PMS_P2;Temp;Humidity;BMP_temperature;BMP_pressure;BME280_temperature;BME280_humidity;BME280_pressure;Samples;Min_cycle;Max_cycle;Signal;HPM_P1;HPM_P2
2021/05/03 00:01:45;;;;;;;9.93;6.90;;;;;;;;;;4996423;28;20448;-53
2021/05/03 00:04:11;;;;;;;10.73;7.00;;;;;;;;;;4996109;28;20450;-54
2021/05/03 00:06:38;;;;;;;12.20;6.57;;;;;;;;;;4995732;28;20820;-54
2021/05/03 00:09:06;;;;;;;9.73;7.47;;;;;;;;;;4996247;28;20465;-58
2021/05/03 00:11:33;;;;;;;9.80;7.13;;;;;;;;;;4995666;28;20476;-56
2021/05/03 00:13:59;;;;;;;10.87;7.30;;;;;;;;;;4995904;28;20493;-51
2021/05/03 00:16:26;;;;;;;10.07;7.17;;;;;;;;;;4995959;28;20495;-54
2021/05/03 00:18:52;;;;;;;12.07;7.63;;;;;;;;;;4995861;28;20937;-56
2021/05/03 00:21:19;;;;;;;10.13;6.63;;;;;;;;;;4995491;28;20476;-58
2021/05/03 00:23:45;;;;;;;12.03;7.73;;;;;;;;;;4995716;28;20477;-56
2021/05/03 00:26:13;;;;;;;10.27;7.20;;;;;;;;;;4995898;28;20452;-54
2021/05/03 00:28:39;;;;;;;11.00;7.67;;;;;;;;;;4995630;28;20506;-53
2021/05/03 00:31:06;;;;;;;12.83;8.83;;;;;;;;;;4995717;28;20449;-56
2021/05/03 00:33:32;;;;;;;12.47;8.47;;;;;;;;;;4995469;28;20476;-57
2021/05/03 00:35:59;;;;;;;11.27;7.90;;;;;;;;;;4995283;28;20495;-54
2021/05/03 00:38:26;;;;;;;10.93;8.37;;;;;;;;;;4995550;28;20480;-54
2021/05/03 00:40:52;;;;;;;15.37;9.70;;;;;;;;;;4995470;28;20463;-57
2021/05/03 00:43:21;;;;;;;13.70;9.03;;;;;;;;;;4995557;28;20467;-56
2021/05/03 00:45:48;;;;;;;12.93;9.43;;;;;;;;;;4995426;28;20831;-58
2021/05/03 00:48:14;;;;;;;14.97;9.13;;;;;;;;;;4995309;28;20456;-58
2021/05/03 00:50:41;;;;;;;12.50;9.17;;;;;;;;;;4995293;28;20448;-55
2021/05/03 00:53:07;;;;;;;17.70;9.37;;;;;;;;;;4995689;28;20476;-55
2021/05/03 00:55:34;;;;;;;14.17;9.60;;;;;;;;;;4995511;28;20491;-55
2021/05/03 00:58:03;;;;;;;13.07;8.87;;;;;;;;;;4995525;28;20802;-57
2021/05/03 01:00:30;;;;;;;14.93;8.73;;;;;;;;;;4994882;28;20455;-58
2021/05/03 01:02:57;;;;;;;12.00;9.37;;;;;;;;;;4994837;28;20472;-57
2021/05/03 01:05:27;;;;;;;13.10;9.13;;;;;;;;;;4995131;28;20456;-59
2021/05/03 01:07:54;;;;;;;15.83;10.20;;;;;;;;;;4995286;28;20452;-57
2021/05/03 01:10:20;;;;;;;14.23;9.23;;;;;;;;;;4994796;28;20506;-59
2021/05/03 01:12:48;;;;;;;14.17;9.27;;;;;;;;;;4994718;28;20483;-57
2021/05/03 01:15:15;;;;;;;13.23;9.47;;;;;;;;;;4994765;28;20521;-58
2021/05/03 01:17:42;;;;;;;13.10;8.93;;;;;;;;;;4994664;28;20461;-57
2021/05/03 01:20:10;;;;;;;12.43;8.87;;;;;;;;;;4994703;28;20499;-58
2021/05/03 01:22:37;;;;;;;11.47;9.27;;;;;;;;;;4994721;28;20475;-55
2021/05/03 01:25:04;;;;;;;14.73;9.80;;;;;;;;;;4994799;28;20459;-56
2021/05/03 01:27:31;;;;;;;12.63;9.03;;;;;;;;;;4994581;28;20448;-55
2021/05/03 01:29:57;;;;;;;13.70;9.50;;;;;;;;;;4994303;28;20463;-58
2021/05/03 01:32:24;;;;;;;15.80;9.80;;;;;;;;;;4994210;28;20476;-55
2021/05/03 01:34:50;;;;;;;13.73;9.80;;;;;;;;;;4994479;28;20873;-55
2021/05/03 01:37:17;;;;;;;14.10;10.10;;;;;;;;;;4994415;28;20451;-55
2021/05/03 01:39:44;;;;;;;15.77;9.87;;;;;;;;;;4994314;28;20462;-58
2021/05/03 01:42:11;;;;;;;15.13;9.47;;;;;;;;;;4994248;28;20479;-59
2021/05/03 01:44:38;;;;;;;14.50;9.67;;;;;;;;;;4994096;28;21020;-58
2021/05/03 01:47:04;;;;;;;14.60;9.93;;;;;;;;;;4994484;28;20509;-57
2021/05/03 01:49:31;;;;;;;14.40;9.50;;;;;;;;;;4994143;28;20459;-58
2021/05/03 01:51:57;;;;;;;15.23;9.43;;;;;;;;;;4994166;28;20478;-58
2021/05/03 01:54:24;;;;;;;12.30;9.13;;;;;;;;;;4994139;28;20513;-55
2021/05/03 01:56:51;;;;;;;14.03;9.40;;;;;;;;;;4994346;28;20456;-55
2021/05/03 01:59:18;;;;;;;14.23;9.23;;;;;;;;;;4993854;28;20538;-56
2021/05/03 02:01:44;;;;;;;15.70;9.10;;;;;;;;;;4993992;28;20483;-55
2021/05/03 02:04:11;;;;;;;16.67;9.83;;;;;;;;;;4994021;28;20454;-54
2021/05/03 02:06:38;;;;;;;15.77;9.60;;;;;;;;;;4993968;28;20453;-58
2021/05/03 02:09:05;;;;;;;14.90;9.53;;;;;;;;;;4993028;28;20823;-57
2021/05/03 02:11:32;;;;;;;14.63;9.67;;;;;;;;;;4993280;28;20482;-55
2021/05/03 02:13:59;;;;;;;15.67;10.53;;;;;;;;;;4993423;28;20471;-53
2021/05/03 02:16:26;;;;;;;15.67;10.40;;;;;;;;;;4993862;28;20443;-59
2021/05/03 02:18:52;;;;;;;15.77;10.87;;;;;;;;;;4993873;28;20935;-54
2021/05/03 02:21:19;;;;;;;18.73;11.67;;;;;;;;;;4993629;28;20459;-52
2021/05/03 02:23:45;;;;;;;17.07;11.33;;;;;;;;;;4993485;28;20475;-52
2021/05/03 02:26:12;;;;;;;16.63;9.87;;;;;;;;;;4993383;28;20502;-53
2021/05/03 02:28:38;;;;;;;14.60;10.60;;;;;;;;;;4993515;28;20463;-51
2021/05/03 02:31:06;;;;;;;16.07;11.20;;;;;;;;;;4993320;28;20454;-57
2021/05/03 02:33:32;;;;;;;15.30;11.50;;;;;;;;;;4993388;28;20474;-56
2021/05/03 02:35:59;;;;;;;15.80;11.27;;;;;;;;;;4993308;28;20487;-55
2021/05/03 02:38:28;;;;;;;18.10;11.33;;;;;;;;;;4993205;28;20451;-53
2021/05/03 02:40:55;;;;;;;19.63;11.23;;;;;;;;;;4993029;28;20486;-55
2021/05/03 02:43:21;;;;;;;21.27;11.97;;;;;;;;;;4993220;28;20475;-55
2021/05/03 02:45:48;;;;;;;19.33;12.00;;;;;;;;;;4993320;28;20458;-50
2021/05/03 02:48:16;;;;;;;18.67;11.73;;;;;;;;;;4993209;28;20486;-58
2021/05/03 02:50:42;;;;;;;19.40;11.73;;;;;;;;;;4993031;28;20455;-56
2021/05/03 02:53:09;;;;;;;16.90;11.70;;;;;;;;;;4992901;28;20471;-59
2021/05/03 02:55:35;;;;;;;17.93;12.23;;;;;;;;;;4992803;28;20575;-52
2021/05/03 02:58:02;;;;;;;17.53;12.07;;;;;;;;;;4993092;28;20454;-50
2021/05/03 03:00:31;;;;;;;19.10;11.33;;;;;;;;;;4992649;28;20459;-52
2021/05/03 03:02:57;;;;;;;19.60;11.63;;;;;;;;;;4992934;28;20854;-53
2021/05/03 03:05:25;;;;;;;16.27;11.50;;;;;;;;;;4992712;28;20506;-50
2021/05/03 03:07:52;;;;;;;22.60;11.93;;;;;;;;;;4992402;28;20455;-53
2021/05/03 03:10:19;;;;;;;19.00;11.47;;;;;;;;;;4992598;28;20464;-52
2021/05/03 03:12:46;;;;;;;19.93;11.53;;;;;;;;;;4992526;28;20533;-53
2021/05/03 03:15:15;;;;;;;18.20;11.57;;;;;;;;;;4992617;28;20522;-50
2021/05/03 03:17:42;;;;;;;21.87;12.47;;;;;;;;;;4993843;28;20458;-52
2021/05/03 03:20:09;;;;;;;17.93;10.77;;;;;;;;;;4993250;28;20462;-51
2021/05/03 03:22:36;;;;;;;18.40;11.43;;;;;;;;;;4992361;28;20474;-54
2021/05/03 03:25:03;;;;;;;21.70;11.57;;;;;;;;;;4992685;28;20501;-52
2021/05/03 03:27:30;;;;;;;16.23;11.30;;;;;;;;;;4994006;28;20451;-53
2021/05/03 03:29:57;;;;;;;17.73;11.40;;;;;;;;;;4996447;28;20578;-54
2021/05/03 03:32:23;;;;;;;15.97;11.67;;;;;;;;;;4995584;28;20639;-57
2021/05/03 03:34:50;;;;;;;18.00;12.17;;;;;;;;;;4993043;28;20486;-56
2021/05/03 03:37:16;;;;;;;17.77;12.20;;;;;;;;;;4992558;28;20505;-55
2021/05/03 03:39:44;;;;;;;17.97;13.27;;;;;;;;;;4992534;28;20514;-54
2021/05/03 03:42:10;;;;;;;19.90;13.03;;;;;;;;;;4992534;28;20470;-55
2021/05/03 03:44:37;;;;;;;21.47;14.03;;;;;;;;;;4992536;28;20454;-57
2021/05/03 03:47:03;;;;;;;19.13;13.47;;;;;;;;;;4992327;28;20955;-57
2021/05/03 03:49:30;;;;;;;20.63;14.37;;;;;;;;;;4992246;28;20447;-56
2021/05/03 03:51:57;;;;;;;19.07;14.47;;;;;;;;;;4992158;28;20478;-58
2021/05/03 03:54:23;;;;;;;19.47;14.47;;;;;;;;;;4992592;28;20482;-53
2021/05/03 03:56:50;;;;;;;17.90;13.27;;;;;;;;;;4992622;28;20455;-53
2021/05/03 03:59:17;;;;;;;19.43;14.47;;;;;;;;;;4992711;28;21018;-57
2021/05/03 04:01:45;;;;;;;25.10;14.10;;;;;;;;;;4992587;28;20451;-56
2021/05/03 04:04:15;;;;;;;23.63;15.67;;;;;;;;;;4992096;28;20459;-55
2021/05/03 04:06:49;;;;;;;20.67;14.07;;;;;;;;;;4992446;28;20526;-55
2021/05/03 04:09:23;;;;;;;22.70;14.47;;;;;;;;;;4992481;28;20451;-53
2021/05/03 04:12:06;;;;;;;21.20;14.77;;;;;;;;;;4991996;28;20473;-58
2021/05/03 04:25:34;;;;;;;19.57;13.40;;;;;;;;;;4977397;28;20636;-57
2021/05/03 04:28:02;;;;;;;21.27;13.57;;;;;;;;;;5011634;28;20446;-58
2021/05/03 04:30:28;;;;;;;21.33;13.90;;;;;;;;;;5021418;28;20433;-57
2021/05/03 04:32:56;;;;;;;22.33;13.50;;;;;;;;;;5028323;28;22244;-57
2021/05/03 04:35:23;;;;;;;18.77;13.20;;;;;;;;;;5011074;28;20477;-56
2021/05/03 04:37:49;;;;;;;18.33;12.67;;;;;;;;;;5014896;28;21023;-61
2021/05/03 04:40:16;;;;;;;16.60;11.23;;;;;;;;;;5014762;28;20454;-60
2021/05/03 04:42:43;;;;;;;17.30;11.83;;;;;;;;;;5014956;28;20474;-57
2021/05/03 04:45:12;;;;;;;16.90;12.30;;;;;;;;;;5014860;28;20520;-58
2021/05/03 04:47:38;;;;;;;20.77;13.00;;;;;;;;;;5014655;28;20450;-57
2021/05/03 04:50:06;;;;;;;18.60;13.03;;;;;;;;;;5014462;28;20454;-56
2021/05/03 04:52:33;;;;;;;17.50;12.63;;;;;;;;;;5014792;28;20477;-57
2021/05/03 04:55:00;;;;;;;18.80;12.43;;;;;;;;;;5014691;28;20490;-56
2021/05/03 04:57:26;;;;;;;19.77;13.10;;;;;;;;;;5014606;28;20454;-57
2021/05/03 04:59:53;;;;;;;17.43;13.40;;;;;;;;;;5014315;28;20449;-58
2021/05/03 05:02:20;;;;;;;18.80;13.17;;;;;;;;;;5014312;28;20470;-56
2021/05/03 05:04:47;;;;;;;18.43;12.60;;;;;;;;;;5014338;28;20501;-58
2021/05/03 05:07:13;;;;;;;16.23;11.70;;;;;;;;;;5014655;28;20455;-52
2021/05/03 05:09:40;;;;;;;15.40;12.23;;;;;;;;;;5014221;28;20450;-55
2021/05/03 05:12:06;;;;;;;17.53;12.73;;;;;;;;;;5014161;28;20479;-58
2021/05/03 05:14:33;;;;;;;24.57;14.20;;;;;;;;;;5013972;28;20491;-55
2021/05/03 05:16:59;;;;;;;22.63;14.30;;;;;;;;;;5014150;28;20537;-58
2021/05/03 05:19:27;;;;;;;20.93;14.50;;;;;;;;;;5014244;28;20529;-56
2021/05/03 05:21:53;;;;;;;20.73;14.40;;;;;;;;;;5014043;28;20470;-59
2021/05/03 05:24:20;;;;;;;21.13;14.20;;;;;;;;;;5006097;28;20456;-56
2021/05/03 05:26:47;;;;;;;19.23;13.07;;;;;;;;;;5013674;28;20456;-53
2021/05/03 05:29:13;;;;;;;16.27;12.57;;;;;;;;;;4994037;28;20458;-56
2021/05/03 05:31:40;;;;;;;16.93;12.00;;;;;;;;;;5009882;28;20455;-56
2021/05/03 05:34:06;;;;;;;16.20;12.07;;;;;;;;;;5033868;28;20450;-59
2021/05/03 05:36:34;;;;;;;17.33;11.87;;;;;;;;;;5033415;28;20497;-59
2021/05/03 05:39:00;;;;;;;15.73;11.93;;;;;;;;;;5034624;28;20565;-59
2021/05/03 05:41:27;;;;;;;16.57;11.17;;;;;;;;;;5034151;28;20475;-57
2021/05/03 05:43:53;;;;;;;18.17;10.87;;;;;;;;;;5031579;28;20471;-56
2021/05/03 05:46:20;;;;;;;15.00;10.40;;;;;;;;;;5032847;28;20449;-51
2021/05/03 05:48:47;;;;;;;12.97;10.10;;;;;;;;;;5033444;28;20457;-54
2021/05/03 05:51:13;;;;;;;15.27;9.90;;;;;;;;;;5034184;28;20809;-60
2021/05/03 05:53:41;;;;;;;14.57;10.50;;;;;;;;;;5035350;28;20469;-63
2021/05/03 05:56:07;;;;;;;14.67;9.07;;;;;;;;;;5035519;28;21143;-63
2021/05/03 05:58:34;;;;;;;13.07;9.80;;;;;;;;;;5033314;28;20848;-64
2021/05/03 06:01:01;;;;;;;12.33;9.77;;;;;;;;;;5032797;28;20450;-62
2021/05/03 06:03:27;;;;;;;12.03;9.03;;;;;;;;;;5032870;28;20526;-66
2021/05/03 06:05:56;;;;;;;14.27;9.70;;;;;;;;;;5032606;28;20445;-54
2021/05/03 06:08:23;;;;;;;15.03;9.23;;;;;;;;;;5032991;28;20464;-65
2021/05/03 06:10:50;;;;;;;13.63;10.30;;;;;;;;;;5032277;28;20925;-64
2021/05/03 06:13:17;;;;;;;11.67;8.40;;;;;;;;;;5032357;28;20477;-65
2021/05/03 06:15:43;;;;;;;13.20;8.57;;;;;;;;;;5032274;28;20861;-63
2021/05/03 06:18:10;;;;;;;12.50;8.77;;;;;;;;;;5032896;28;20457;-64
2021/05/03 06:20:38;;;;;;;10.57;8.27;;;;;;;;;;5032385;28;20945;-65
2021/05/03 06:23:05;;;;;;;13.23;9.00;;;;;;;;;;5032324;28;20560;-59
2021/05/03 06:25:32;;;;;;;11.30;8.83;;;;;;;;;;5029299;28;20450;-62
2021/05/03 06:28:00;;;;;;;12.50;10.07;;;;;;;;;;5009853;28;20454;-63
2021/05/03 06:30:27;;;;;;;13.50;9.40;;;;;;;;;;5012629;28;20807;-61
2021/05/03 06:32:54;;;;;;;12.50;9.63;;;;;;;;;;5012283;28;20470;-61
2021/05/03 06:35:21;;;;;;;13.10;10.07;;;;;;;;;;5012003;28;20489;-63
2021/05/03 06:37:48;;;;;;;10.67;8.20;;;;;;;;;;5012605;28;20212;-63
2021/05/03 06:40:15;;;;;;;12.77;8.87;;;;;;;;;;5012190;28;20446;-63
2021/05/03 06:42:42;;;;;;;12.43;9.60;;;;;;;;;;5012165;28;20255;-63
2021/05/03 06:45:10;;;;;;;11.43;9.27;;;;;;;;;;5012198;28;20322;-62
2021/05/03 06:47:37;;;;;;;10.47;8.27;;;;;;;;;;5012346;28;20212;-59
2021/05/03 06:50:04;;;;;;;12.53;8.57;;;;;;;;;;5011882;28;20250;-60
2021/05/03 06:52:30;;;;;;;14.33;9.43;;;;;;;;;;5012273;28;20317;-60
2021/05/03 06:54:57;;;;;;;8.87;7.13;;;;;;;;;;5015678;28;20231;-64
2021/05/03 06:57:23;;;;;;;12.40;6.77;;;;;;;;;;5015338;28;20214;-57
2021/05/03 06:59:50;;;;;;;14.33;8.07;;;;;;;;;;5012334;28;20211;-60
2021/05/03 07:02:18;;;;;;;9.40;7.37;;;;;;;;;;5012397;28;20259;-57
2021/05/03 07:04:44;;;;;;;11.10;7.93;;;;;;;;;;5012109;28;20208;-60
2021/05/03 07:07:11;;;;;;;10.53;7.20;;;;;;;;;;5016706;28;20209;-62
2021/05/03 07:09:37;;;;;;;12.50;8.37;;;;;;;;;;5015655;28;20258;-64
2021/05/03 07:12:08;;;;;;;13.27;8.70;;;;;;;;;;5013791;28;20656;-61
2021/05/03 07:14:35;;;;;;;13.97;9.07;;;;;;;;;;5011418;28;20212;-61
2021/05/03 07:17:04;;;;;;;12.60;8.30;;;;;;;;;;5011628;28;20212;-65
2021/05/03 07:19:31;;;;;;;10.27;7.63;;;;;;;;;;5011775;28;20211;-59
2021/05/03 07:21:58;;;;;;;11.53;7.77;;;;;;;;;;5011508;28;20239;-59
2021/05/03 07:24:24;;;;;;;11.80;7.97;;;;;;;;;;5011322;28;20262;-60
2021/05/03 07:26:51;;;;;;;11.37;7.73;;;;;;;;;;5012129;28;20281;-59
2021/05/03 07:29:17;;;;;;;14.93;7.50;;;;;;;;;;5011614;28;20217;-62
2021/05/03 07:31:44;;;;;;;9.90;6.30;;;;;;;;;;5011534;28;20209;-61
2021/05/03 07:34:11;;;;;;;12.67;6.63;;;;;;;;;;5011399;28;20207;-61
2021/05/03 07:36:38;;;;;;;9.17;6.80;;;;;;;;;;5011536;28;20235;-64
2021/05/03 07:39:06;;;;;;;10.47;6.67;;;;;;;;;;5011718;28;20206;-65
2021/05/03 07:41:32;;;;;;;9.10;6.27;;;;;;;;;;5020190;28;20213;-65
2021/05/03 07:43:59;;;;;;;7.53;5.67;;;;;;;;;;5031163;28;20233;-65
2021/05/03 07:46:25;;;;;;;8.03;6.30;;;;;;;;;;5031098;28;20210;-61
2021/05/03 07:48:52;;;;;;;6.93;5.43;;;;;;;;;;5031387;28;20207;-64
2021/05/03 07:51:19;;;;;;;8.53;4.70;;;;;;;;;;5030674;28;20242;-62
2021/05/03 07:53:46;;;;;;;6.53;4.63;;;;;;;;;;5031068;28;20706;-66
2021/05/03 07:56:15;;;;;;;10.70;4.47;;;;;;;;;;5030965;28;20249;-63
2021/05/03 07:58:41;;;;;;;10.20;5.20;;;;;;;;;;5031150;28;20257;-65
2021/05/03 08:01:08;;;;;;;7.63;4.50;;;;;;;;;;5031024;28;20214;-65
2021/05/03 08:03:36;;;;;;;7.03;4.10;;;;;;;;;;5031021;28;20276;-64
2021/05/03 08:06:03;;;;;;;7.00;4.20;;;;;;;;;;5030879;28;20280;-64
2021/05/03 08:08:30;;;;;;;9.47;4.17;;;;;;;;;;5035164;28;20622;-66
2021/05/03 08:10:57;;;;;;;6.53;3.33;;;;;;;;;;5035004;28;20568;-63
2021/05/03 08:13:26;;;;;;;4.03;3.20;;;;;;;;;;5034913;28;20288;-57
2021/05/03 08:15:54;;;;;;;4.73;2.87;;;;;;;;;;5034514;28;20233;-65
2021/05/03 08:18:20;;;;;;;5.63;3.80;;;;;;;;;;5034597;28;20301;-59
2021/05/03 08:20:47;;;;;;;6.13;3.67;;;;;;;;;;5034763;28;20229;-56
2021/05/03 08:23:19;;;;;;;8.30;3.03;;;;;;;;;;5034584;28;20235;-56
2021/05/03 08:25:45;;;;;;;5.93;3.33;;;;;;;;;;5035123;28;20602;-66
2021/05/03 08:28:13;;;;;;;5.40;3.67;;;;;;;;;;5035066;28;20211;-67
2021/05/03 08:30:39;;;;;;;4.00;2.80;;;;;;;;;;5034391;28;20408;-67
2021/05/03 08:33:06;;;;;;;5.17;3.07;;;;;;;;;;5034324;28;20230;-68
2021/05/03 08:35:32;;;;;;;4.37;2.97;;;;;;;;;;5033888;28;20231;-61
2021/05/03 08:37:59;;;;;;;6.03;3.27;;;;;;;;;;5034724;28;20204;-67
2021/05/03 08:40:26;;;;;;;7.13;3.20;;;;;;;;;;5034258;28;20208;-66
2021/05/03 08:42:53;;;;;;;4.77;2.90;;;;;;;;;;5034469;28;20228;-66
2021/05/03 08:45:20;;;;;;;5.33;4.10;;;;;;;;;;5033913;28;20211;-64
2021/05/03 08:48:00;;;;;;;7.23;3.77;;;;;;;;;;5034455;28;20233;-66
2021/05/03 08:50:44;;;;;;;5.73;3.63;;;;;;;;;;5034463;28;20678;-64
2021/05/03 08:53:13;;;;;;;6.70;3.73;;;;;;;;;;5036409;28;20639;-64
2021/05/03 08:55:39;;;;;;;7.47;4.00;;;;;;;;;;5035067;28;20250;-66
2021/05/03 08:58:06;;;;;;;8.03;4.80;;;;;;;;;;5034067;28;20267;-63
2021/05/03 09:00:33;;;;;;;7.30;4.97;;;;;;;;;;5034209;28;20206;-63
2021/05/03 09:03:01;;;;;;;8.47;5.67;;;;;;;;;;5034293;28;20523;-61
2021/05/03 09:05:28;;;;;;;8.10;6.20;;;;;;;;;;5033758;28;20214;-64
2021/05/03 09:07:54;;;;;;;8.30;5.70;;;;;;;;;;5033830;28;20208;-64
2021/05/03 09:10:22;;;;;;;8.60;5.80;;;;;;;;;;5033637;28;20206;-62
2021/05/03 09:12:49;;;;;;;8.73;6.53;;;;;;;;;;5033947;28;20248;-67
2021/05/03 09:15:19;;;;;;;10.00;6.20;;;;;;;;;;5034030;28;20226;-63
2021/05/03 09:17:46;;;;;;;11.33;6.97;;;;;;;;;;5033636;28;20213;-61
2021/05/03 09:20:14;;;;;;;7.50;6.43;;;;;;;;;;5033310;28;20213;-60
2021/05/03 09:22:45;;;;;;;8.93;5.87;;;;;;;;;;5033510;28;20226;-61
2021/05/03 09:25:15;;;;;;;8.07;5.90;;;;;;;;;;5033111;28;20255;-61
2021/05/03 09:27:42;;;;;;;12.17;5.10;;;;;;;;;;5033761;28;20593;-59
2021/05/03 09:30:08;;;;;;;7.40;5.27;;;;;;;;;;5033558;28;20214;-61
2021/05/03 09:32:35;;;;;;;9.33;6.00;;;;;;;;;;5033724;28;20245;-65
2021/05/03 09:35:02;;;;;;;9.73;5.47;;;;;;;;;;5033132;28;20223;-56
2021/05/03 09:37:31;;;;;;;11.83;6.73;;;;;;;;;;5033197;28;20206;-66
2021/05/03 09:40:02;;;;;;;7.37;5.50;;;;;;;;;;5033448;28;20237;-65
2021/05/03 09:42:42;;;;;;;7.80;5.37;;;;;;;;;;5033264;28;20237;-66
2021/05/03 09:45:09;;;;;;;7.43;4.77;;;;;;;;;;5033225;28;20202;-67
2021/05/03 09:47:36;;;;;;;5.73;4.60;;;;;;;;;;5033816;28;20213;-63
2021/05/03 09:50:08;;;;;;;16.47;5.50;;;;;;;;;;5032717;28;20214;-63
2021/05/03 09:52:35;;;;;;;7.43;5.73;;;;;;;;;;5033042;28;20236;-64
2021/05/03 09:55:02;;;;;;;6.90;5.57;;;;;;;;;;5032950;28;20233;-65
2021/05/03 09:57:28;;;;;;;8.33;5.17;;;;;;;;;;5033058;28;20217;-63
2021/05/03 09:59:56;;;;;;;10.93;5.90;;;;;;;;;;5032624;28;20210;-64
2021/05/03 10:02:24;;;;;;;7.77;5.40;;;;;;;;;;5032874;28;20588;-63
2021/05/03 10:04:56;;;;;;;14.10;7.53;;;;;;;;;;5032357;28;20244;-66
2021/05/03 10:07:25;;;;;;;6.67;5.33;;;;;;;;;;5032997;28;20210;-62
2021/05/03 10:09:54;;;;;;;7.60;5.67;;;;;;;;;;5032664;28;20207;-61
2021/05/03 10:12:21;;;;;;;9.20;5.47;;;;;;;;;;5032626;28;20745;-60
2021/05/03 10:14:48;;;;;;;11.63;5.67;;;;;;;;;;5032321;28;20210;-66
2021/05/03 10:17:16;;;;;;;6.50;5.20;;;;;;;;;;5032562;28;20210;-65
2021/05/03 10:19:43;;;;;;;9.40;6.23;;;;;;;;;;5032404;28;20675;-66
2021/05/03 10:22:10;;;;;;;10.03;5.23;;;;;;;;;;5032560;28;20373;-66
2021/05/03 10:24:39;;;;;;;8.60;5.37;;;;;;;;;;5032494;28;20674;-63
2021/05/03 10:27:06;;;;;;;8.50;5.53;;;;;;;;;;5034384;28;20213;-66
2021/05/03 10:29:40;;;;;;;9.43;5.73;;;;;;;;;;5034412;28;20264;-65
2021/05/03 10:32:07;;;;;;;7.43;5.97;;;;;;;;;;5035603;28;20245;-66
2021/05/03 10:34:37;;;;;;;8.60;6.07;;;;;;;;;;5035348;28;20213;-65
2021/05/03 10:37:04;;;;;;;7.13;5.70;;;;;;;;;;5032848;28;20198;-65
2021/05/03 10:39:38;;;;;;;11.60;5.40;;;;;;;;;;5032591;28;20213;-63
2021/05/03 10:42:07;;;;;;;6.67;5.70;;;;;;;;;;5033340;28;20222;-64
2021/05/03 10:44:35;;;;;;;8.60;5.40;;;;;;;;;;5033134;28;20206;-64
2021/05/03 10:47:05;;;;;;;7.10;5.63;;;;;;;;;;5034316;28;20293;-65
2021/05/03 10:49:33;;;;;;;9.87;6.90;;;;;;;;;;5034644;28;20210;-63
2021/05/03 10:52:01;;;;;;;7.57;5.33;;;;;;;;;;5032935;28;20580;-63
2021/05/03 10:54:43;;;;;;;8.50;5.77;;;;;;;;;;5031982;28;20213;-63
2021/05/03 10:57:10;;;;;;;6.90;5.83;;;;;;;;;;5032051;28;20242;-63
2021/05/03 10:59:58;;;;;;;6.50;5.77;;;;;;;;;;5031897;28;20202;-65
2021/05/03 11:02:25;;;;;;;7.00;5.87;;;;;;;;;;5028469;28;20257;-67
2021/05/03 11:05:12;;;;;;;7.03;5.97;;;;;;;;;;5031546;28;20297;-65
2021/05/03 11:07:59;;;;;;;8.80;6.53;;;;;;;;;;5031830;28;20214;-67
2021/05/03 11:10:40;;;;;;;11.90;6.13;;;;;;;;;;5031343;28;20206;-60
2021/05/03 11:13:22;;;;;;;9.33;6.43;;;;;;;;;;5031473;28;20238;-67
2021/05/03 11:15:49;;;;;;;6.97;5.40;;;;;;;;;;5031246;28;20237;-67
2021/05/03 11:18:23;;;;;;;9.27;5.70;;;;;;;;;;5031848;28;20202;-67
2021/05/03 11:21:12;;;;;;;7.83;5.80;;;;;;;;;;5031666;28;20214;-64
2021/05/03 11:23:40;;;;;;;9.23;6.13;;;;;;;;;;5031438;28;20718;-65
2021/05/03 11:26:22;;;;;;;12.03;6.30;;;;;;;;;;5031441;28;20237;-66
2021/05/03 11:28:48;;;;;;;7.30;5.87;;;;;;;;;;5031536;28;20214;-65
2021/05/03 11:31:18;;;;;;;7.80;5.97;;;;;;;;;;5031449;28;20234;-66
2021/05/03 11:33:48;;;;;;;8.83;6.03;;;;;;;;;;5031471;28;20236;-64
2021/05/03 11:36:20;;;;;;;11.27;5.70;;;;;;;;;;5031128;28;20253;-64
2021/05/03 11:38:58;;;;;;;7.13;5.13;;;;;;;;;;5031825;28;20609;-64
2021/05/03 11:41:34;;;;;;;6.73;5.30;;;;;;;;;;5031745;28;20240;-66
2021/05/03 11:44:14;;;;;;;6.47;5.43;;;;;;;;;;4996054;28;20238;-66
2021/05/03 11:46:41;;;;;;;10.20;5.37;;;;;;;;;;4995990;28;20204;-65
2021/05/03 11:49:15;;;;;;;7.20;5.37;;;;;;;;;;4996415;28;20265;-65
2021/05/03 11:51:45;;;;;;;5.63;5.00;;;;;;;;;;5007350;28;20220;-65
2021/05/03 11:54:23;;;;;;;8.53;5.77;;;;;;;;;;5015489;28;20220;-64
2021/05/03 11:56:54;;;;;;;10.23;5.90;;;;;;;;;;5015715;28;20235;-65
2021/05/03 11:59:21;;;;;;;7.87;5.57;;;;;;;;;;5015098;28;20260;-63
2021/05/03 12:01:57;;;;;;;14.10;6.67;;;;;;;;;;5015515;28;20208;-65
2021/05/03 12:04:31;;;;;;;8.63;6.07;;;;;;;;;;5015164;28;20243;-64
2021/05/03 12:06:58;;;;;;;10.43;6.47;;;;;;;;;;5015475;28;20207;-67
2021/05/03 12:09:25;;;;;;;11.20;7.77;;;;;;;;;;5015350;28;20621;-65
2021/05/03 12:11:55;;;;;;;7.17;6.23;;;;;;;;;;5014922;28;20280;-66
2021/05/03 12:14:37;;;;;;;11.20;6.57;;;;;;;;;;5015073;28;20215;-66
2021/05/03 12:17:14;;;;;;;9.37;6.63;;;;;;;;;;5015445;28;20583;-65
2021/05/03 12:19:40;;;;;;;13.80;7.07;;;;;;;;;;5014819;28;20207;-70
2021/05/03 12:22:07;;;;;;;12.10;7.23;;;;;;;;;;5014829;28;20285;-61
2021/05/03 12:24:35;;;;;;;9.87;6.60;;;;;;;;;;5014976;28;20211;-64
2021/05/03 12:27:01;;;;;;;7.73;6.57;;;;;;;;;;5015056;28;20261;-60
2021/05/03 12:29:29;;;;;;;9.67;6.97;;;;;;;;;;5014983;28;20210;-65
2021/05/03 12:31:56;;;;;;;10.47;8.47;;;;;;;;;;5014807;28;20231;-64
2021/05/03 12:34:25;;;;;;;21.50;8.40;;;;;;;;;;5014581;28;20219;-62
2021/05/03 12:37:08;;;;;;;13.07;7.30;;;;;;;;;;5014469;28;20227;-65
2021/05/03 12:39:35;;;;;;;8.67;7.10;;;;;;;;;;5015015;28;20215;-63
2021/05/03 12:42:15;;;;;;;13.10;7.30;;;;;;;;;;5014646;28;20232;-62
2021/05/03 12:44:45;;;;;;;9.53;6.77;;;;;;;;;;5014527;28;20607;-62
2021/05/03 12:47:28;;;;;;;11.07;7.23;;;;;;;;;;5014517;28;20349;-60
2021/05/03 12:49:58;;;;;;;9.53;7.40;;;;;;;;;;5014503;28;20569;-62
2021/05/03 12:52:30;;;;;;;8.43;6.77;;;;;;;;;;5014037;28;20234;-62
2021/05/03 12:55:03;;;;;;;9.27;6.87;;;;;;;;;;5014397;28;20668;-63
2021/05/03 12:57:44;;;;;;;6.93;6.10;;;;;;;;;;5014231;28;20265;-63
2021/05/03 13:00:17;;;;;;;7.50;6.37;;;;;;;;;;5014657;28;20225;-62
2021/05/03 13:02:59;;;;;;;7.23;6.07;;;;;;;;;;5014380;28;20227;-60
2021/05/03 13:05:31;;;;;;;8.07;6.20;;;;;;;;;;5027973;28;20591;-62
2021/05/03 13:08:06;;;;;;;7.60;6.37;;;;;;;;;;5033786;28;20203;-62
2021/05/03 13:10:59;;;;;;;9.50;6.53;;;;;;;;;;5033993;28;20762;-62
2021/05/03 13:24:45;;;;;;;10.87;6.13;;;;;;;;;;4994293;28;20589;-65
2021/05/03 13:30:00;;;;;;;9.30;6.67;;;;;;;;;;5013645;28;20202;-64
2021/05/03 13:32:28;;;;;;;7.10;6.00;;;;;;;;;;5013681;28;20271;-60
2021/05/03 13:34:54;;;;;;;9.23;6.53;;;;;;;;;;5013458;28;20214;-63
2021/05/03 13:37:22;;;;;;;8.47;6.67;;;;;;;;;;5013666;28;20295;-62
2021/05/03 13:39:49;;;;;;;11.17;6.47;;;;;;;;;;5013427;28;20210;-68
2021/05/03 13:42:16;;;;;;;7.60;6.20;;;;;;;;;;5014197;28;20232;-59
2021/05/03 13:44:43;;;;;;;11.10;7.37;;;;;;;;;;5013651;28;20253;-65
2021/05/03 13:47:10;;;;;;;12.57;6.87;;;;;;;;;;5012627;28;20740;-62
2021/05/03 13:49:36;;;;;;;11.47;7.57;;;;;;;;;;4993796;28;20204;-61
2021/05/03 13:52:03;;;;;;;12.40;7.20;;;;;;;;;;4994002;28;20233;-61
2021/05/03 13:54:30;;;;;;;10.80;6.43;;;;;;;;;;4993760;28;20208;-61
2021/05/03 13:56:57;;;;;;;8.50;6.50;;;;;;;;;;4993880;28;20228;-58
2021/05/03 13:59:24;;;;;;;8.47;6.13;;;;;;;;;;4993501;28;20212;-60
2021/05/03 14:01:50;;;;;;;8.57;5.63;;;;;;;;;;4994020;28;20241;-61
2021/05/03 14:04:17;;;;;;;10.67;6.30;;;;;;;;;;4992815;28;20210;-57
2021/05/03 14:06:46;;;;;;;8.17;5.63;;;;;;;;;;4993995;28;20213;-61
2021/05/03 14:09:12;;;;;;;7.57;5.73;;;;;;;;;;4993859;28;20205;-59
2021/05/03 14:11:39;;;;;;;9.87;5.17;;;;;;;;;;4993664;28;20224;-61
2021/05/03 14:14:06;;;;;;;10.60;5.57;;;;;;;;;;4996656;28;20229;-61
2021/05/03 14:16:32;;;;;;;9.77;5.50;;;;;;;;;;4996911;28;20237;-60
2021/05/03 14:19:01;;;;;;;8.40;5.50;;;;;;;;;;4993029;28;20701;-54
2021/05/03 14:21:27;;;;;;;8.67;5.00;;;;;;;;;;4993457;28;20214;-56
2021/05/03 14:23:54;;;;;;;9.63;5.30;;;;;;;;;;4993979;28;20228;-61
2021/05/03 14:26:23;;;;;;;6.63;5.43;;;;;;;;;;4996726;28;20272;-61
2021/05/03 14:28:54;;;;;;;8.57;5.27;;;;;;;;;;4997971;28;20207;-59
2021/05/03 14:31:23;;;;;;;6.10;5.33;;;;;;;;;;4993387;28;20764;-54
2021/05/03 14:33:53;;;;;;;6.70;5.80;;;;;;;;;;4992912;28;20274;-56
2021/05/03 14:36:20;;;;;;;9.90;5.40;;;;;;;;;;4993077;28;20226;-57
2021/05/03 14:38:46;;;;;;;7.87;5.57;;;;;;;;;;4993270;28;20224;-59
2021/05/03 14:41:13;;;;;;;6.27;5.50;;;;;;;;;;4992880;28;20208;-55
2021/05/03 14:43:39;;;;;;;6.20;5.53;;;;;;;;;;4992813;28;20600;-59
2021/05/03 14:46:11;;;;;;;7.03;5.33;;;;;;;;;;4992685;28;20208;-58
2021/05/03 14:48:41;;;;;;;6.77;5.33;;;;;;;;;;4992878;28;20226;-58
2021/05/03 14:51:23;;;;;;;6.00;5.40;;;;;;;;;;4992799;28;20215;-58
2021/05/03 14:54:00;;;;;;;8.43;5.37;;;;;;;;;;5006441;28;20262;-66
2021/05/03 14:56:27;;;;;;;6.67;5.23;;;;;;;;;;5012060;28;20227;-65
2021/05/03 14:58:53;;;;;;;6.60;5.53;;;;;;;;;;5012388;28;20203;-58
2021/05/03 15:01:21;;;;;;;6.47;5.20;;;;;;;;;;5012027;28;20210;-61
2021/05/03 15:03:47;;;;;;;10.33;5.37;;;;;;;;;;5012122;28;20309;-61